Terminal Aerodrome Forecast
Issued by NWS Cleveland, OH

Home | Current Version | Previous Version | Text Only | Print | Product List | Glossary On
Versions: 1 2 3 4 5 6 7 8 9 10 11 12 13 14 15 16 17 18 19 20 21 22 23 24 25 26 27 28 29
000
FTUS41 KCLE 061300 AAA
TAFERI
TAF AMD
KERI 061310Z 0613/0712 34005KT 3SM -SHRA BR BKN010 OVC035
      TEMPO 0613/0614 1 1/2SM BR OVC010
     FM061400 04008KT 6SM BR SCT015 OVC035
     FM061800 03008KT P6SM SCT050 BKN250
     FM070200 16003KT P6SM SCT250
     FM070700 18003KT 4SM BR SCT250=

USA.gov is the U.S. government's official web portal to all federal, state and local government web resources and services.